createdAt,value
2018-12-16T00:00:32.408Z,23.70
2018-12-16T00:03:34.953Z,23.70
2018-12-16T00:06:37.466Z,23.70
2018-12-16T00:09:40.724Z,23.70
2018-12-16T00:12:43.324Z,23.70
2018-12-16T00:15:47.047Z,23.70
2018-12-16T00:18:49.616Z,23.70
2018-12-16T00:21:52.704Z,23.70
2018-12-16T00:24:55.982Z,23.70
2018-12-16T00:27:58.498Z,23.70
2018-12-16T00:31:01.003Z,23.70
2018-12-16T00:34:04.867Z,23.60
2018-12-16T00:37:07.462Z,23.70
2018-12-16T00:40:09.923Z,23.70
2018-12-16T00:43:12.451Z,23.70
2018-12-16T00:46:15.960Z,23.80
2018-12-16T00:49:18.507Z,23.70
2018-12-16T00:52:22.013Z,23.70
2018-12-16T00:55:24.534Z,23.70
2018-12-16T00:58:27.591Z,23.70
2018-12-16T01:01:30.158Z,23.70
2018-12-16T01:04:32.616Z,23.70
2018-12-16T01:07:35.947Z,23.70
2018-12-16T01:10:38.463Z,23.70
2018-12-16T01:13:41.155Z,23.70
2018-12-16T01:16:43.686Z,23.70
2018-12-16T01:19:46.190Z,23.70
2018-12-16T01:22:50.554Z,23.70
2018-12-16T01:25:54.010Z,23.70
2018-12-16T01:28:57.269Z,23.70
2018-12-16T01:32:01.181Z,23.70
2018-12-16T01:35:04.944Z,23.70
2018-12-16T01:38:08.828Z,23.70
2018-12-16T01:41:11.558Z,23.70
2018-12-16T01:44:14.988Z,23.70
2018-12-16T01:47:17.711Z,23.70
2018-12-16T01:50:21.596Z,23.70
2018-12-16T01:53:24.282Z,23.70
2018-12-16T01:56:26.874Z,23.70
2018-12-16T01:59:29.871Z,23.70
2018-12-16T02:02:33.327Z,23.70
2018-12-16T02:05:36.482Z,23.70
2018-12-16T02:08:39.140Z,23.70
2018-12-16T02:11:42.618Z,23.70
2018-12-16T02:14:46.159Z,23.70
2018-12-16T02:17:49.592Z,23.70
2018-12-16T02:20:52.199Z,23.70
2018-12-16T02:23:58.521Z,23.70
2018-12-16T02:27:02.082Z,23.70
2018-12-16T02:30:04.525Z,23.70
2018-12-16T02:33:10.316Z,23.70
2018-12-16T02:36:13.195Z,23.70
2018-12-16T02:39:15.984Z,23.70
2018-12-16T02:42:18.442Z,23.70
2018-12-16T02:45:20.908Z,23.70
2018-12-16T02:48:24.198Z,23.70
2018-12-16T02:51:26.953Z,23.70
2018-12-16T02:54:29.550Z,23.70
2018-12-16T02:57:33.118Z,23.70
2018-12-16T03:00:35.600Z,23.70
2018-12-16T03:03:38.238Z,23.70
2018-12-16T03:06:40.782Z,23.70
2018-12-16T03:09:43.771Z,23.70
2018-12-16T03:12:47.121Z,23.70
2018-12-16T03:15:49.774Z,23.70
2018-12-16T03:18:52.231Z,23.70
2018-12-16T03:21:54.900Z,23.70
2018-12-16T03:24:57.893Z,23.70
2018-12-16T03:28:00.751Z,23.70
2018-12-16T03:31:03.752Z,23.70
2018-12-16T03:34:06.744Z,23.70
2018-12-16T03:37:09.248Z,23.70
2018-12-16T03:40:13.918Z,23.70
2018-12-16T03:43:16.707Z,23.70
2018-12-16T03:46:19.331Z,23.70
2018-12-16T03:49:22.269Z,23.70
2018-12-16T03:52:26.296Z,23.70
2018-12-16T03:55:31.176Z,23.70
2018-12-16T03:58:35.137Z,23.70
2018-12-16T04:01:49.762Z,23.70
2018-12-16T04:04:55.739Z,23.70
2018-12-16T04:08:07.149Z,23.70
2018-12-16T04:11:10.090Z,23.70
2018-12-16T04:14:12.951Z,23.70
2018-12-16T04:17:15.647Z,23.60
2018-12-16T04:20:18.275Z,23.70
2018-12-16T04:23:27.385Z,23.70
2018-12-16T04:26:27.010Z,23.70
2018-12-16T04:29:30.429Z,23.70
2018-12-16T04:32:34.216Z,23.60
2018-12-16T04:35:38.338Z,23.70
2018-12-16T04:38:42.794Z,23.70
2018-12-16T04:41:46.755Z,23.70
2018-12-16T04:44:49.263Z,23.60
2018-12-16T04:47:51.866Z,23.70
2018-12-16T04:50:54.604Z,23.60
2018-12-16T04:53:57.194Z,23.70
2018-12-16T04:56:59.774Z,23.60
2018-12-16T05:00:02.484Z,23.60
2018-12-16T05:03:06.377Z,23.60
2018-12-16T05:06:09.050Z,23.60
2018-12-16T05:09:11.802Z,23.60
2018-12-16T05:12:14.464Z,23.70
2018-12-16T05:15:17.293Z,23.60
2018-12-16T05:18:19.956Z,23.70
2018-12-16T05:21:23.602Z,23.70
2018-12-16T05:24:26.210Z,23.70
2018-12-16T05:27:30.821Z,23.70
2018-12-16T05:30:34.548Z,23.70
2018-12-16T05:33:37.198Z,23.70
2018-12-16T05:36:39.883Z,23.70
2018-12-16T05:39:42.637Z,23.70
2018-12-16T05:42:45.242Z,23.60
2018-12-16T05:45:48.441Z,23.60
2018-12-16T05:48:52.190Z,23.60
2018-12-16T05:55:06.652Z,23.60
2018-12-16T05:58:09.397Z,23.60
2018-12-16T06:01:12.437Z,23.60
2018-12-16T06:04:17.190Z,23.60
2018-12-16T06:07:19.645Z,23.60
2018-12-16T06:10:24.216Z,23.60
2018-12-16T06:13:28.817Z,23.60
2018-12-16T06:16:31.795Z,23.60
2018-12-16T06:19:34.484Z,23.60
2018-12-16T06:22:38.006Z,23.60
2018-12-16T06:25:40.570Z,23.60
2018-12-16T06:28:43.322Z,23.60
2018-12-16T06:31:45.995Z,23.60
2018-12-16T06:34:48.504Z,23.60
2018-12-16T06:37:51.076Z,23.60
2018-12-16T06:40:54.023Z,23.60
2018-12-16T06:43:56.522Z,23.60
2018-12-16T06:46:59.291Z,23.60
2018-12-16T06:50:02.746Z,23.60
2018-12-16T06:53:06.263Z,23.60
2018-12-16T06:56:09.035Z,23.60
2018-12-16T06:59:11.821Z,23.60
2018-12-16T07:02:14.411Z,23.60
2018-12-16T07:05:17.151Z,23.60
2018-12-16T07:08:19.875Z,23.60
2018-12-16T07:11:22.496Z,23.60
2018-12-16T07:14:25.420Z,23.60
2018-12-16T07:17:28.903Z,23.60
2018-12-16T07:20:31.561Z,23.60
2018-12-16T07:23:34.025Z,23.60
2018-12-16T07:26:37.755Z,23.60
2018-12-16T07:29:41.476Z,23.60
2018-12-16T07:32:45.120Z,23.60
2018-12-16T07:35:49.276Z,23.60
2018-12-16T07:38:51.795Z,23.60
2018-12-16T07:41:54.332Z,23.60
2018-12-16T07:44:57.498Z,23.60
2018-12-16T07:48:00.799Z,23.60
2018-12-16T07:51:03.398Z,23.60
2018-12-16T07:54:05.885Z,23.60
2018-12-16T07:57:08.597Z,23.60
2018-12-16T08:00:11.434Z,23.60
2018-12-16T08:03:15.087Z,23.60
2018-12-16T08:06:17.663Z,23.60
2018-12-16T08:09:20.251Z,23.60
2018-12-16T08:12:22.701Z,23.60
2018-12-16T08:15:25.273Z,23.60
2018-12-16T08:18:32.309Z,23.60
2018-12-16T08:21:34.880Z,23.60
2018-12-16T08:24:37.513Z,23.60
2018-12-16T08:27:40.219Z,23.60
2018-12-16T08:30:43.805Z,23.60
2018-12-16T08:33:46.415Z,23.60
2018-12-16T08:36:50.082Z,23.60
2018-12-16T08:39:53.968Z,23.60
2018-12-16T08:42:56.610Z,23.60
2018-12-16T08:45:59.263Z,23.60
2018-12-16T08:49:01.744Z,23.60
2018-12-16T08:52:04.234Z,23.60
2018-12-16T08:55:06.790Z,23.60
2018-12-16T08:58:10.395Z,23.60
2018-12-16T09:01:13.859Z,23.60
2018-12-16T09:04:16.831Z,23.60
2018-12-16T09:07:21.250Z,23.60
2018-12-16T09:10:23.751Z,23.60
2018-12-16T09:13:26.430Z,23.60
2018-12-16T09:16:29.196Z,23.60
2018-12-16T09:19:32.393Z,23.60
2018-12-16T09:22:36.227Z,23.60
2018-12-16T09:25:39.652Z,23.60
2018-12-16T09:28:42.157Z,23.60
2018-12-16T09:31:45.760Z,23.60
2018-12-16T09:34:48.276Z,23.60
2018-12-16T09:37:50.726Z,23.60
2018-12-16T09:40:53.220Z,23.60
2018-12-16T09:43:55.967Z,23.60
2018-12-16T09:47:01.838Z,23.60
2018-12-16T09:50:04.457Z,23.60
2018-12-16T09:53:07.018Z,23.60
2018-12-16T09:56:09.501Z,23.60
2018-12-16T09:59:12.943Z,23.60
2018-12-16T10:02:16.476Z,23.60
2018-12-16T10:05:18.965Z,23.60
2018-12-16T10:08:22.525Z,23.60
2018-12-16T10:11:25.200Z,23.50
2018-12-16T10:14:40.973Z,23.50
2018-12-16T10:17:48.331Z,23.50
2018-12-16T10:20:58.763Z,23.50
2018-12-16T10:24:03.755Z,23.50
2018-12-16T10:27:17.460Z,23.40
2018-12-16T10:30:24.956Z,23.40
2018-12-16T10:33:45.659Z,23.40
2018-12-16T10:36:55.208Z,23.40
2018-12-16T10:39:58.091Z,23.40
2018-12-16T10:46:18.684Z,23.40
2018-12-16T10:49:35.787Z,23.40
2018-12-16T10:52:44.202Z,23.30
2018-12-16T10:59:04.734Z,23.30
2018-12-16T11:02:09.053Z,23.30
2018-12-16T11:05:21.693Z,23.30
2018-12-16T11:08:39.030Z,23.30
2018-12-16T11:11:41.885Z,23.20
2018-12-16T11:14:53.104Z,23.20
2018-12-16T11:17:56.775Z,23.20
2018-12-16T11:21:05.132Z,23.20
2018-12-16T11:27:46.200Z,23.10
2018-12-16T11:30:54.299Z,23.10
2018-12-16T11:33:56.958Z,23.10
2018-12-16T11:37:06.327Z,23.10
2018-12-16T11:40:32.961Z,23.10
2018-12-16T11:43:36.269Z,23.10
2018-12-16T11:46:38.916Z,23.00
2018-12-16T11:49:41.437Z,23.00
2018-12-16T11:52:44.204Z,23.00
2018-12-16T12:09:49.147Z,23.00
2018-12-16T12:12:51.787Z,23.00
2018-12-16T12:15:54.491Z,23.00
2018-12-16T12:18:59.063Z,23.00
2018-12-16T12:22:04.472Z,22.90
2018-12-16T12:25:10.313Z,22.90
2018-12-16T12:28:13.900Z,22.90
2018-12-16T12:31:17.919Z,22.90
2018-12-16T12:34:21.058Z,22.90
2018-12-16T12:37:36.652Z,22.90
2018-12-16T12:54:52.192Z,22.90
2018-12-16T12:57:58.463Z,22.80
2018-12-16T13:01:01.444Z,22.70
2018-12-16T13:04:03.977Z,22.70
2018-12-16T13:07:06.945Z,22.70
2018-12-16T13:10:09.683Z,22.70
2018-12-16T13:13:12.243Z,22.70
2018-12-16T13:16:14.811Z,22.70
2018-12-16T13:19:19.425Z,22.70
2018-12-16T13:22:23.091Z,22.70
2018-12-16T13:25:37.560Z,22.70
2018-12-16T13:32:26.098Z,22.70
2018-12-16T13:39:04.345Z,22.60
2018-12-16T13:42:10.539Z,22.60
2018-12-16T13:45:47.937Z,22.70
2018-12-16T13:49:01.164Z,22.60
2018-12-16T13:52:17.950Z,22.60
2018-12-16T14:43:24.151Z,22.40
2018-12-16T14:46:27.777Z,22.40
2018-12-16T14:49:32.180Z,22.40
2018-12-16T14:52:35.025Z,22.40
2018-12-16T14:55:37.755Z,22.40
2018-12-16T14:58:44.081Z,22.40
2018-12-16T15:01:48.949Z,22.40
2018-12-16T15:04:52.321Z,22.40
2018-12-16T15:07:56.072Z,22.40
2018-12-16T15:11:01.960Z,22.40
2018-12-16T15:14:07.727Z,22.40
2018-12-16T15:17:12.989Z,22.40
2018-12-16T15:20:16.932Z,22.40
2018-12-16T15:23:20.942Z,22.40
2018-12-16T15:26:27.049Z,22.40
2018-12-16T15:29:32.757Z,22.40
2018-12-16T15:32:37.781Z,22.40
2018-12-16T15:35:43.542Z,22.40
2018-12-16T15:38:47.928Z,22.40
2018-12-16T15:41:52.740Z,22.40
2018-12-16T15:44:57.878Z,22.40
2018-12-16T15:48:06.364Z,22.40
2018-12-16T15:51:12.848Z,22.40
2018-12-16T15:54:18.038Z,22.40
2018-12-16T15:57:25.028Z,22.40
2018-12-16T16:00:29.865Z,22.40
2018-12-16T16:03:33.669Z,22.40
2018-12-16T16:06:37.390Z,22.40
2018-12-16T16:09:41.899Z,22.40
2018-12-16T16:12:46.672Z,22.40
2018-12-16T16:15:50.396Z,22.40
2018-12-16T16:18:54.457Z,22.40
2018-12-16T16:21:59.171Z,22.40
2018-12-16T17:40:29.575Z,22.30
2018-12-16T17:43:33.101Z,22.30
2018-12-16T17:46:36.695Z,22.30
2018-12-16T17:49:40.328Z,22.30
2018-12-16T17:52:43.103Z,22.30
2018-12-16T17:55:45.800Z,22.30
2018-12-16T17:58:49.066Z,22.30
2018-12-16T18:01:51.835Z,22.30
2018-12-16T18:04:54.376Z,22.30
2018-12-16T18:07:57.147Z,22.30
2018-12-16T18:10:59.942Z,22.20
2018-12-16T18:14:02.718Z,22.30
2018-12-16T18:17:08.118Z,22.30
2018-12-16T18:20:11.483Z,22.30
2018-12-16T18:23:14.760Z,22.30
2018-12-16T18:26:18.008Z,22.30
2018-12-16T18:29:21.929Z,22.30
2018-12-16T18:32:26.020Z,22.30
2018-12-16T18:35:29.089Z,22.30
2018-12-16T18:38:34.510Z,22.30
2018-12-16T18:41:43.166Z,22.30
2018-12-16T18:44:53.940Z,22.30
2018-12-16T18:48:00.531Z,22.30
2018-12-16T18:51:03.532Z,22.30
2018-12-16T18:54:06.148Z,22.30
2018-12-16T18:57:09.985Z,22.30
2018-12-16T19:00:16.283Z,22.30
2018-12-16T19:03:20.164Z,22.30
2018-12-16T19:06:23.990Z,22.30
2018-12-16T19:09:27.578Z,22.30
2018-12-16T19:45:41.704Z,22.30
2018-12-16T19:57:05.130Z,22.40
2018-12-16T20:00:37.430Z,22.40
2018-12-16T22:14:12.406Z,21.10
2018-12-16T22:17:14.892Z,21.60
2018-12-16T22:20:18.538Z,21.70
2018-12-16T22:23:21.032Z,21.70
2018-12-16T22:26:23.690Z,21.80
2018-12-16T22:29:28.139Z,21.90
2018-12-16T22:32:30.770Z,21.90
2018-12-16T22:35:34.637Z,21.90
2018-12-16T22:42:25.164Z,22.00
2018-12-16T22:45:27.698Z,22.00
2018-12-16T22:48:31.432Z,22.00
2018-12-16T22:51:33.976Z,22.00
2018-12-16T22:54:36.894Z,22.00
2018-12-16T22:57:46.925Z,22.00
2018-12-16T23:00:51.240Z,22.00
2018-12-16T23:03:55.927Z,22.00
2018-12-16T23:06:58.885Z,22.00
2018-12-16T23:10:01.424Z,22.00
2018-12-16T23:13:07.863Z,22.00
2018-12-16T23:16:10.699Z,22.00
2018-12-16T23:19:13.292Z,22.00
2018-12-16T23:22:15.980Z,22.00
2018-12-16T23:25:18.528Z,22.00
2018-12-16T23:28:21.442Z,22.00
2018-12-16T23:31:23.970Z,21.90
2018-12-16T23:34:26.653Z,22.00
2018-12-16T23:37:29.146Z,22.00
2018-12-16T23:40:32.119Z,21.90
2018-12-16T23:43:35.082Z,21.90
2018-12-16T23:46:38.016Z,22.00
2018-12-16T23:49:43.978Z,21.90
2018-12-16T23:52:48.052Z,21.90
2018-12-16T23:55:50.793Z,21.90
2018-12-16T23:58:54.709Z,21.90
